Time;durP1;ratioP1;P1;durP2;ratioP2;P2;SDS_P1;SDS_P2;PMS_P1;PMS_P2;Temp;Humidity;BMP_temperature;BMP_pressure;BME280_temperature;BME280_humidity;BME280_pressure;Samples;Min_cycle;Max_cycle;Signal;HPM_P1;HPM_P2
2022/02/17 00:02:01;;;;;;;23.15;9.75;;;28.80;64.80;;;;;;5085158;28;20081;-49
2022/02/17 00:04:28;;;;;;;19.20;9.32;;;28.80;64.50;;;;;;5085534;28;20017;-47
2022/02/17 00:06:54;;;;;;;18.23;9.65;;;28.70;64.00;;;;;;5083542;28;20032;-56
2022/02/17 00:09:21;;;;;;;20.95;9.27;;;28.70;64.00;;;;;;5084744;28;20075;-48
2022/02/17 00:11:47;;;;;;;34.45;10.80;;;28.70;64.00;;;;;;5084838;28;20063;-54
2022/02/17 00:14:14;;;;;;;26.50;10.40;;;28.70;63.80;;;;;;5084988;28;20084;-54
2022/02/17 00:16:40;;;;;;;21.15;9.80;;;28.70;63.80;;;;;;5084920;28;20017;-51
2022/02/17 00:19:07;;;;;;;26.80;10.43;;;28.70;64.10;;;;;;5085073;28;20040;-57
2022/02/17 00:21:36;;;;;;;19.77;9.95;;;28.70;64.00;;;;;;5084379;28;20037;-48
2022/02/17 00:24:03;;;;;;;18.85;10.13;;;28.70;63.60;;;;;;5085095;28;20044;-55
2022/02/17 00:26:29;;;;;;;27.58;11.85;;;28.70;63.40;;;;;;5084608;28;20085;-54
2022/02/17 00:28:59;;;;;;;23.77;12.00;;;28.70;63.60;;;;;;5084852;28;20024;-55
2022/02/17 00:31:26;;;;;;;39.72;12.43;;;28.70;63.50;;;;;;5050080;28;20030;-56
2022/02/17 00:33:55;;;;;;;33.15;10.90;;;28.70;63.60;;;;;;4983746;28;20285;-45
2022/02/17 00:36:31;;;;;;;32.83;10.80;;;28.70;63.60;;;;;;5037965;28;20256;-48
2022/02/17 00:38:58;;;;;;;21.40;10.85;;;28.70;63.20;;;;;;5034930;28;20019;-49
2022/02/17 00:41:26;;;;;;;16.73;10.35;;;28.70;63.80;;;;;;5039943;28;20263;-48
2022/02/17 00:43:52;;;;;;;22.33;10.80;;;28.70;63.10;;;;;;5028649;28;20100;-48
2022/02/17 00:46:20;;;;;;;24.15;11.50;;;28.70;63.10;;;;;;5030552;28;20023;-46
2022/02/17 00:48:47;;;;;;;19.40;10.65;;;28.70;63.00;;;;;;5037789;28;20024;-49
2022/02/17 00:51:15;;;;;;;23.85;10.30;;;28.70;63.10;;;;;;5030091;28;20011;-49
2022/02/17 00:53:42;;;;;;;20.13;10.40;;;28.70;63.20;;;;;;5028778;28;20313;-48
2022/02/17 00:56:08;;;;;;;23.05;10.25;;;28.70;63.00;;;;;;5037450;28;20052;-51
2022/02/17 00:58:35;;;;;;;17.67;9.63;;;28.70;63.30;;;;;;5031382;28;20019;-47
2022/02/17 01:01:02;;;;;;;23.08;9.43;;;28.60;63.50;;;;;;5028565;28;20035;-50
2022/02/17 01:03:31;;;;;;;15.95;9.43;;;28.60;63.20;;;;;;5024921;28;20027;-47
2022/02/17 01:05:58;;;;;;;21.92;9.80;;;28.60;63.20;;;;;;5029831;28;20077;-47
2022/02/17 01:08:24;;;;;;;22.80;10.55;;;28.60;63.00;;;;;;5036815;28;20092;-50
2022/02/17 01:10:51;;;;;;;23.35;10.40;;;28.60;63.10;;;;;;5034920;28;20019;-48
2022/02/17 01:13:17;;;;;;;20.08;9.70;;;28.60;63.30;;;;;;5026683;28;20299;-50
2022/02/17 01:15:46;;;;;;;15.57;8.95;;;28.60;63.30;;;;;;5036862;28;20020;-51
2022/02/17 01:18:12;;;;;;;27.38;9.45;;;28.60;63.10;;;;;;5030684;28;20081;-51
2022/02/17 01:20:40;;;;;;;25.58;6.90;;;28.60;62.90;;;;;;5035921;28;20060;-54
2022/02/17 01:23:08;;;;;;;17.85;8.63;;;28.60;63.10;;;;;;5029278;28;20026;-47
2022/02/17 01:25:37;;;;;;;15.07;7.78;;;28.60;62.50;;;;;;5027270;28;20094;-45
2022/02/17 01:28:06;;;;;;;16.35;8.07;;;28.50;61.70;;;;;;5023657;28;20019;-50
2022/02/17 01:30:39;;;;;;;16.17;8.10;;;28.60;61.30;;;;;;5012872;28;20172;-47
2022/02/17 01:33:05;;;;;;;17.58;7.80;;;28.50;61.10;;;;;;5025826;28;20086;-51
2022/02/17 01:35:32;;;;;;;18.27;10.20;;;28.50;61.30;;;;;;5031151;28;20035;-48
2022/02/17 01:37:59;;;;;;;25.70;9.70;;;28.60;61.00;;;;;;5052821;28;20139;-48
2022/02/17 01:40:25;;;;;;;24.98;10.85;;;28.50;61.00;;;;;;5082645;28;20028;-48
2022/02/17 01:42:52;;;;;;;23.90;9.57;;;28.50;61.10;;;;;;5083070;28;20071;-45
2022/02/17 01:45:19;;;;;;;24.75;9.73;;;28.50;61.50;;;;;;5082750;28;20021;-53
2022/02/17 01:47:47;;;;;;;25.30;9.00;;;28.50;61.50;;;;;;5082914;28;20040;-50
2022/02/17 01:50:14;;;;;;;15.40;8.88;;;28.50;61.20;;;;;;5082689;28;20044;-50
2022/02/17 01:52:41;;;;;;;19.80;8.85;;;28.50;61.00;;;;;;5083013;28;20020;-48
2022/02/17 01:55:08;;;;;;;17.08;8.88;;;28.50;60.60;;;;;;5072020;28;20031;-49
2022/02/17 01:57:40;;;;;;;19.27;8.20;;;28.50;60.60;;;;;;5027543;28;20034;-48
2022/02/17 02:00:07;;;;;;;17.20;7.85;;;28.50;60.80;;;;;;5031943;28;20043;-52
2022/02/17 02:02:34;;;;;;;31.52;21.67;;;28.50;60.80;;;;;;5032546;28;20037;-50
2022/02/17 02:05:02;;;;;;;72.15;65.00;;;28.50;60.90;;;;;;5037821;28;20027;-54
2022/02/17 02:07:28;;;;;;;48.70;40.40;;;28.50;60.60;;;;;;5037854;28;20038;-48
2022/02/17 02:09:56;;;;;;;28.60;18.38;;;28.50;60.40;;;;;;5029522;28;20042;-51
2022/02/17 02:12:23;;;;;;;21.83;13.80;;;28.50;60.40;;;;;;5036606;28;20087;-51
2022/02/17 02:14:51;;;;;;;15.90;11.82;;;28.50;60.40;;;;;;5037797;28;20216;-51
2022/02/17 02:17:20;;;;;;;20.63;9.93;;;28.40;60.20;;;;;;5026886;28;20030;-52
2022/02/17 02:19:47;;;;;;;17.10;9.30;;;28.40;59.90;;;;;;5033557;28;20048;-49
2022/02/17 02:22:14;;;;;;;18.38;9.63;;;28.40;60.10;;;;;;5039987;28;20032;-48
2022/02/17 02:24:41;;;;;;;25.52;9.35;;;28.40;60.70;;;;;;5029684;28;20066;-45
2022/02/17 02:27:15;;;;;;;20.17;9.15;;;28.40;61.00;;;;;;5033211;28;20023;-47
2022/02/17 02:29:43;;;;;;;17.02;8.93;;;28.40;60.40;;;;;;5028931;28;20065;-50
2022/02/17 02:32:11;;;;;;;17.88;8.50;;;28.40;60.40;;;;;;5032005;28;20016;-49
2022/02/17 02:34:37;;;;;;;16.27;8.20;;;28.40;60.60;;;;;;5039756;28;20028;-52
2022/02/17 02:37:06;;;;;;;15.55;8.70;;;28.40;60.80;;;;;;5028941;28;20241;-54
2022/02/17 02:39:34;;;;;;;18.20;9.00;;;28.40;61.20;;;;;;5029946;28;20083;-45
2022/02/17 02:42:01;;;;;;;15.18;9.00;;;28.40;61.50;;;;;;5027617;28;20023;-53
2022/02/17 02:44:28;;;;;;;17.98;8.75;;;28.40;61.50;;;;;;5002558;28;20041;-45
2022/02/17 02:46:55;;;;;;;17.80;8.90;;;28.40;61.20;;;;;;4983075;28;20022;-51
2022/02/17 02:49:22;;;;;;;20.90;10.00;;;28.40;61.60;;;;;;4983593;28;20088;-50
2022/02/17 02:51:52;;;;;;;21.58;8.40;;;28.30;61.30;;;;;;4983034;28;20030;-52
2022/02/17 02:54:21;;;;;;;15.95;7.85;;;28.40;61.30;;;;;;4983503;28;20034;-53
2022/02/17 02:56:47;;;;;;;17.17;8.20;;;28.30;61.30;;;;;;4983083;28;20090;-52
2022/02/17 02:59:14;;;;;;;15.55;8.48;;;28.30;61.60;;;;;;4997882;28;20036;-48
2022/02/17 03:01:41;;;;;;;14.25;8.65;;;28.30;62.10;;;;;;5030646;28;20035;-49
2022/02/17 03:04:07;;;;;;;14.20;8.48;;;28.30;62.40;;;;;;5037268;28;20031;-50
2022/02/17 03:06:34;;;;;;;15.52;8.02;;;28.30;61.70;;;;;;5024719;28;20038;-46
2022/02/17 03:09:00;;;;;;;17.00;7.60;;;28.20;61.30;;;;;;5035348;28;20027;-47
2022/02/17 03:11:27;;;;;;;16.25;11.63;;;28.20;61.80;;;;;;5030687;28;20017;-48
2022/02/17 03:13:54;;;;;;;21.35;10.18;;;28.20;61.80;;;;;;5043363;28;20099;-51
2022/02/17 03:16:20;;;;;;;15.75;8.50;;;28.20;61.50;;;;;;5085849;28;20216;-53
2022/02/17 03:18:47;;;;;;;17.00;7.70;;;28.20;61.70;;;;;;5086281;28;20024;-55
2022/02/17 03:21:13;;;;;;;18.63;8.32;;;28.20;61.30;;;;;;5085893;28;20037;-54
2022/02/17 03:23:40;;;;;;;30.15;22.40;;;28.20;61.40;;;;;;5026720;28;20037;-48
2022/02/17 03:26:07;;;;;;;119.60;107.55;;;28.20;61.50;;;;;;4983486;28;20026;-49
2022/02/17 03:28:33;;;;;;;39.90;35.67;;;28.10;61.40;;;;;;5012790;28;20045;-55
2022/02/17 03:31:00;;;;;;;29.77;22.35;;;28.10;61.00;;;;;;5037284;28;20029;-50
2022/02/17 03:33:26;;;;;;;20.92;12.85;;;28.10;60.90;;;;;;5036186;28;20030;-46
2022/02/17 03:35:53;;;;;;;18.75;10.27;;;28.10;61.10;;;;;;5085621;28;20023;-48
2022/02/17 03:38:20;;;;;;;15.88;10.40;;;28.10;61.70;;;;;;5085607;28;20176;-51
2022/02/17 03:40:46;;;;;;;13.15;9.18;;;28.10;61.90;;;;;;5058925;28;20206;-51
2022/02/17 03:43:13;;;;;;;15.27;9.00;;;28.10;61.90;;;;;;5039352;28;20196;-47
2022/02/17 03:45:39;;;;;;;12.38;8.45;;;28.10;61.90;;;;;;5030611;28;20219;-47
2022/02/17 03:48:06;;;;;;;14.73;8.15;;;28.10;62.10;;;;;;5042932;28;20022;-51
2022/02/17 03:50:32;;;;;;;11.85;8.23;;;28.00;61.90;;;;;;5085217;28;20074;-48
2022/02/17 03:52:59;;;;;;;12.20;8.02;;;28.00;61.70;;;;;;5084656;28;20077;-48
2022/02/17 03:55:26;;;;;;;14.23;8.95;;;28.00;61.90;;;;;;5028436;28;20437;-48
2022/02/17 03:57:52;;;;;;;12.88;8.02;;;28.00;62.00;;;;;;4993404;28;20086;-50
2022/02/17 04:00:19;;;;;;;14.70;8.25;;;28.00;62.00;;;;;;4982848;28;20215;-49
2022/02/17 04:02:47;;;;;;;13.48;8.45;;;28.10;62.30;;;;;;4983201;28;20270;-57
2022/02/17 04:05:14;;;;;;;18.00;12.68;;;28.10;62.20;;;;;;4983203;28;20031;-49
2022/02/17 04:07:40;;;;;;;22.80;17.70;;;28.10;62.20;;;;;;4983226;28;20365;-53
2022/02/17 04:10:07;;;;;;;25.90;16.35;;;28.10;62.20;;;;;;5000605;28;20222;-52
2022/02/17 04:12:34;;;;;;;18.02;12.00;;;28.10;62.00;;;;;;5042467;28;20301;-47
2022/02/17 04:15:00;;;;;;;14.57;10.85;;;28.10;62.00;;;;;;5016558;28;20199;-49
2022/02/17 04:17:27;;;;;;;17.92;9.77;;;28.10;61.90;;;;;;4982526;28;20058;-49
2022/02/17 04:19:53;;;;;;;14.40;9.38;;;28.10;61.90;;;;;;4982977;28;20093;-54
2022/02/17 04:22:21;;;;;;;15.75;8.85;;;28.10;61.80;;;;;;4983006;28;20031;-51
2022/02/17 04:24:48;;;;;;;16.77;9.98;;;28.10;62.00;;;;;;4982922;28;20335;-51
2022/02/17 04:27:15;;;;;;;17.38;9.50;;;28.10;62.20;;;;;;4982950;28;20026;-52
2022/02/17 04:29:41;;;;;;;17.08;9.55;;;28.10;62.50;;;;;;4982750;28;20041;-52
2022/02/17 04:32:08;;;;;;;16.05;9.55;;;28.10;62.60;;;;;;4982593;28;20114;-52
2022/02/17 04:34:35;;;;;;;14.73;9.18;;;28.10;63.10;;;;;;4982742;28;20266;-53
2022/02/17 04:37:02;;;;;;;16.88;9.55;;;28.10;62.60;;;;;;4982760;28;20026;-52
2022/02/17 04:39:28;;;;;;;14.80;9.18;;;28.00;62.60;;;;;;4982579;28;20035;-52
2022/02/17 04:44:40;;;;;;;15.90;9.00;;;28.00;62.80;;;;;;4982556;28;20084;-51
2022/02/17 04:47:06;;;;;;;13.13;9.25;;;28.00;62.70;;;;;;4982603;28;20038;-51
2022/02/17 04:49:33;;;;;;;12.55;9.52;;;28.00;62.80;;;;;;4982440;28;20128;-54
2022/02/17 04:51:59;;;;;;;15.13;9.60;;;28.00;62.90;;;;;;4982517;28;20029;-54
2022/02/17 04:54:27;;;;;;;11.73;9.73;;;28.00;63.10;;;;;;4982374;28;20041;-55
2022/02/17 04:56:54;;;;;;;15.43;9.73;;;28.00;63.20;;;;;;4982488;28;20349;-49
2022/02/17 04:59:21;;;;;;;16.38;9.52;;;28.00;63.20;;;;;;4983089;28;20054;-50
2022/02/17 05:01:47;;;;;;;16.20;9.52;;;28.00;63.40;;;;;;4982485;28;20105;-50
2022/02/17 05:04:14;;;;;;;14.75;9.88;;;28.00;63.60;;;;;;4982857;28;20188;-54
2022/02/17 05:06:40;;;;;;;15.55;9.20;;;28.00;63.80;;;;;;4982465;28;20034;-51
2022/02/17 05:09:07;;;;;;;13.00;10.15;;;28.00;63.90;;;;;;4982570;28;20054;-53
2022/02/17 05:11:34;;;;;;;15.73;9.90;;;28.00;64.00;;;;;;4982323;28;20041;-48
2022/02/17 05:14:00;;;;;;;14.43;9.80;;;28.00;64.10;;;;;;4982613;28;20045;-49
2022/02/17 05:16:35;;;;;;;13.93;9.25;;;28.00;64.30;;;;;;4982176;28;20068;-50
2022/02/17 05:19:03;;;;;;;13.77;10.15;;;28.00;64.50;;;;;;4982063;28;20034;-48
2022/02/17 05:21:30;;;;;;;14.00;9.82;;;27.90;64.20;;;;;;4981913;28;20051;-50
2022/02/17 05:23:56;;;;;;;16.27;10.25;;;27.90;64.00;;;;;;4982623;28;20031;-46
2022/02/17 05:26:23;;;;;;;15.35;9.75;;;27.90;64.10;;;;;;4981988;28;20334;-52
2022/02/17 05:28:50;;;;;;;15.10;10.00;;;27.90;64.30;;;;;;4982293;28;20030;-49
2022/02/17 05:31:16;;;;;;;13.93;9.55;;;27.90;64.30;;;;;;4985399;28;20043;-49
2022/02/17 05:33:43;;;;;;;14.30;9.95;;;27.90;64.30;;;;;;4985922;28;20026;-53
2022/02/17 05:36:09;;;;;;;14.68;9.70;;;27.90;64.30;;;;;;4985390;28;20026;-53
2022/02/17 05:38:36;;;;;;;13.05;9.27;;;27.90;64.20;;;;;;4985726;28;20098;-46
2022/02/17 05:41:02;;;;;;;15.00;9.82;;;27.90;64.30;;;;;;4985337;28;20019;-49
2022/02/17 05:43:29;;;;;;;14.70;9.25;;;27.90;64.60;;;;;;4985670;28;20035;-45
2022/02/17 05:45:56;;;;;;;14.02;9.80;;;27.90;64.60;;;;;;4985247;28;20037;-47
2022/02/17 05:48:22;;;;;;;13.90;9.65;;;27.90;64.50;;;;;;4985082;28;20027;-46
2022/02/17 05:50:49;;;;;;;15.55;9.60;;;27.90;64.50;;;;;;4985223;28;20066;-53
2022/02/17 05:53:15;;;;;;;16.90;9.85;;;27.90;64.40;;;;;;4985321;28;20322;-48
2022/02/17 05:55:43;;;;;;;16.85;9.93;;;27.80;64.30;;;;;;4985186;28;20085;-44
2022/02/17 05:58:09;;;;;;;14.93;9.88;;;27.80;64.40;;;;;;4985458;28;20041;-47
2022/02/17 06:00:36;;;;;;;14.38;9.10;;;27.80;64.40;;;;;;4985051;28;20023;-46
2022/02/17 06:03:02;;;;;;;12.40;9.48;;;27.80;64.40;;;;;;4985286;28;20050;-50
2022/02/17 06:05:29;;;;;;;13.15;9.02;;;27.80;64.40;;;;;;4985045;28;20238;-51
2022/02/17 06:07:55;;;;;;;14.77;9.10;;;27.80;64.90;;;;;;4985137;28;20038;-50
2022/02/17 06:10:22;;;;;;;15.88;9.25;;;27.80;64.30;;;;;;4984871;28;20046;-46
2022/02/17 06:12:49;;;;;;;20.10;9.27;;;27.80;64.30;;;;;;4985166;28;20046;-50
2022/02/17 06:15:20;;;;;;;17.52;9.18;;;27.80;64.50;;;;;;4984747;28;20031;-47
2022/02/17 06:17:46;;;;;;;14.98;8.75;;;27.80;64.50;;;;;;4984949;28;20368;-46
2022/02/17 06:20:13;;;;;;;11.68;8.65;;;27.80;64.60;;;;;;4984774;28;20103;-48
2022/02/17 06:22:50;;;;;;;12.18;8.82;;;27.80;64.70;;;;;;4984769;28;20035;-46
2022/02/17 06:25:19;;;;;;;14.50;9.45;;;27.80;64.90;;;;;;4985030;28;20061;-53
2022/02/17 06:27:47;;;;;;;11.60;9.02;;;27.80;65.00;;;;;;4984812;28;20030;-52
2022/02/17 06:30:14;;;;;;;15.93;9.60;;;27.80;64.90;;;;;;4984659;28;20034;-46
2022/02/17 06:32:49;;;;;;;13.30;8.90;;;27.80;65.00;;;;;;4984766;28;20074;-46
2022/02/17 06:35:21;;;;;;;15.68;8.50;;;27.80;65.10;;;;;;4984562;28;20014;-54
2022/02/17 06:37:49;;;;;;;12.50;8.40;;;27.80;65.00;;;;;;4984685;28;20049;-48
2022/02/17 06:40:17;;;;;;;13.57;8.77;;;27.80;65.10;;;;;;4984564;28;20018;-50
2022/02/17 06:42:44;;;;;;;11.90;8.68;;;27.70;65.20;;;;;;4984851;28;20056;-50
2022/02/17 06:45:11;;;;;;;13.80;9.20;;;27.70;65.30;;;;;;4985007;28;20327;-54
2022/02/17 06:47:38;;;;;;;12.90;8.48;;;27.70;65.40;;;;;;4984574;28;20035;-46
2022/02/17 06:50:07;;;;;;;12.35;8.63;;;27.70;65.50;;;;;;4984203;28;20103;-47
2022/02/17 06:52:34;;;;;;;11.38;8.38;;;27.70;65.60;;;;;;4984675;28;20212;-46
2022/02/17 06:55:01;;;;;;;14.63;8.65;;;27.70;65.60;;;;;;4984942;28;20077;-50
2022/02/17 06:57:28;;;;;;;13.90;8.32;;;27.70;65.80;;;;;;4984677;28;20035;-50
2022/02/17 06:59:54;;;;;;;10.90;8.48;;;27.70;65.70;;;;;;4984640;28;20018;-48
2022/02/17 07:02:25;;;;;;;13.13;8.43;;;27.70;66.00;;;;;;4984199;28;20061;-48
2022/02/17 07:04:52;;;;;;;11.50;8.45;;;27.70;66.00;;;;;;4984569;28;20037;-51
2022/02/17 07:07:19;;;;;;;11.68;7.85;;;27.70;66.30;;;;;;4984568;28;20029;-51
2022/02/17 07:09:46;;;;;;;11.77;7.93;;;27.70;66.30;;;;;;4984439;28;20302;-50
2022/02/17 07:12:14;;;;;;;11.73;8.32;;;27.70;66.30;;;;;;4984088;28;20019;-49
2022/02/17 07:14:41;;;;;;;11.90;7.90;;;27.70;66.40;;;;;;4983940;28;20097;-50
2022/02/17 07:17:08;;;;;;;10.48;8.20;;;27.70;66.60;;;;;;4984007;28;20242;-57
2022/02/17 07:19:35;;;;;;;11.75;8.43;;;27.70;66.70;;;;;;4983807;28;20050;-50
2022/02/17 07:22:02;;;;;;;10.38;8.10;;;27.70;66.90;;;;;;4984070;28;20031;-49
2022/02/17 07:24:30;;;;;;;12.00;8.40;;;27.70;67.00;;;;;;4984006;28;20327;-48
2022/02/17 07:26:56;;;;;;;13.98;8.20;;;27.70;67.10;;;;;;4984052;28;20059;-46
2022/02/17 07:29:23;;;;;;;11.70;8.25;;;27.70;67.30;;;;;;4984565;28;20307;-46
2022/02/17 07:31:52;;;;;;;11.00;8.07;;;27.70;67.00;;;;;;4984019;28;20027;-57
2022/02/17 07:34:20;;;;;;;11.25;8.20;;;27.60;66.80;;;;;;4984152;28;20035;-50
2022/02/17 07:36:47;;;;;;;12.68;8.30;;;27.60;66.90;;;;;;4983920;28;20011;-49
2022/02/17 07:39:14;;;;;;;13.20;8.18;;;27.70;67.00;;;;;;4984631;28;20058;-53
2022/02/17 07:41:41;;;;;;;12.65;8.20;;;27.60;67.00;;;;;;4983591;28;20031;-47
2022/02/17 07:44:09;;;;;;;10.25;7.75;;;27.60;66.90;;;;;;4984550;28;20295;-53
2022/02/17 07:46:36;;;;;;;11.10;7.90;;;27.60;67.20;;;;;;4983828;28;20106;-50
2022/02/17 07:49:05;;;;;;;9.95;8.07;;;27.60;67.00;;;;;;4983538;28;20037;-48
2022/02/17 07:51:33;;;;;;;11.30;8.02;;;27.60;67.10;;;;;;4983430;28;20039;-52
2022/02/17 07:54:00;;;;;;;14.48;8.77;;;27.60;67.10;;;;;;4983506;28;20025;-49
2022/02/17 07:56:27;;;;;;;11.60;7.88;;;27.60;67.40;;;;;;4984214;28;20072;-51
2022/02/17 07:58:53;;;;;;;11.73;8.35;;;27.60;67.30;;;;;;4983898;28;20039;-58
2022/02/17 08:01:20;;;;;;;9.85;8.35;;;27.60;67.40;;;;;;4983666;28;20011;-53
2022/02/17 08:03:47;;;;;;;10.50;7.93;;;27.60;67.40;;;;;;4983744;28;20035;-59
2022/02/17 08:06:14;;;;;;;10.75;7.93;;;27.60;67.60;;;;;;4983255;28;20049;-54
2022/02/17 08:08:45;;;;;;;12.90;8.02;;;27.60;67.50;;;;;;4983778;28;20118;-53
2022/02/17 08:11:12;;;;;;;10.52;7.68;;;27.60;67.50;;;;;;4982911;28;20033;-52
2022/02/17 08:13:38;;;;;;;13.52;7.93;;;27.50;67.50;;;;;;4983470;28;20054;-48
2022/02/17 08:16:05;;;;;;;13.85;7.90;;;27.50;67.60;;;;;;4983069;28;20200;-45
2022/02/17 08:18:31;;;;;;;12.25;7.95;;;27.50;67.50;;;;;;4983529;28;20019;-46
2022/02/17 08:20:58;;;;;;;17.33;7.70;;;27.60;67.40;;;;;;4983272;28;20122;-47
2022/02/17 08:23:25;;;;;;;19.20;7.75;;;27.50;67.20;;;;;;4983552;28;20039;-58
2022/02/17 08:25:51;;;;;;;14.70;7.90;;;27.50;67.40;;;;;;4983256;28;20027;-47
2022/02/17 08:28:18;;;;;;;13.10;8.27;;;27.50;67.90;;;;;;4983705;28;20102;-51
2022/02/17 08:30:44;;;;;;;16.15;8.70;;;27.50;67.40;;;;;;4982836;28;20023;-51
2022/02/17 08:33:11;;;;;;;14.88;8.20;;;27.50;67.40;;;;;;4983113;28;20039;-49
2022/02/17 08:35:38;;;;;;;17.00;8.18;;;27.50;67.50;;;;;;4983026;28;20014;-49
2022/02/17 08:38:04;;;;;;;11.35;7.50;;;27.50;67.50;;;;;;4982987;28;20233;-49
2022/02/17 08:40:31;;;;;;;14.73;7.85;;;27.50;67.50;;;;;;4982926;28;20039;-45
2022/02/17 08:43:08;;;;;;;11.88;7.35;;;27.40;67.70;;;;;;4983139;28;20035;-47
2022/02/17 08:45:40;;;;;;;11.70;7.90;;;27.40;67.50;;;;;;4982770;28;20084;-53
2022/02/17 08:48:07;;;;;;;13.18;8.00;;;27.40;67.50;;;;;;4982790;28;20065;-50
2022/02/17 08:50:35;;;;;;;16.27;8.27;;;27.50;67.60;;;;;;4982760;28;20042;-53
2022/02/17 08:53:02;;;;;;;15.95;7.97;;;27.40;67.50;;;;;;4983087;28;20022;-55
2022/02/17 08:55:29;;;;;;;12.68;7.45;;;27.40;67.40;;;;;;4982940;28;20019;-52
2022/02/17 08:57:55;;;;;;;12.10;7.95;;;27.40;67.40;;;;;;4982871;28;20038;-50
2022/02/17 09:00:22;;;;;;;15.98;7.93;;;27.40;67.70;;;;;;4982480;28;20026;-50
2022/02/17 09:02:49;;;;;;;11.88;7.10;;;27.40;67.50;;;;;;4982639;28;20058;-49
2022/02/17 09:05:16;;;;;;;12.45;7.20;;;27.40;67.40;;;;;;4981601;28;20019;-50
2022/02/17 09:07:42;;;;;;;12.15;6.85;;;27.40;67.40;;;;;;4982462;28;20031;-46
2022/02/17 09:10:09;;;;;;;11.52;7.47;;;27.40;67.60;;;;;;4982610;28;20038;-49
2022/02/17 09:12:37;;;;;;;13.52;7.60;;;27.40;67.60;;;;;;4982766;28;20059;-49
2022/02/17 09:15:05;;;;;;;11.93;6.95;;;27.40;67.50;;;;;;4983048;28;20041;-48
2022/02/17 09:17:32;;;;;;;12.23;7.43;;;27.40;67.50;;;;;;4982720;28;20307;-49
2022/02/17 09:19:59;;;;;;;10.98;7.15;;;27.40;67.50;;;;;;4982206;28;20126;-48
2022/02/17 09:22:26;;;;;;;9.40;7.07;;;27.40;67.40;;;;;;4981239;28;20045;-49
2022/02/17 09:24:52;;;;;;;13.90;7.60;;;27.40;67.30;;;;;;4982155;28;20025;-49
2022/02/17 09:27:19;;;;;;;12.77;7.18;;;27.30;67.20;;;;;;4980910;28;20204;-51
2022/02/17 09:29:46;;;;;;;13.88;7.50;;;27.30;67.20;;;;;;4980828;28;20094;-48
2022/02/17 09:32:12;;;;;;;12.02;7.40;;;27.30;67.10;;;;;;4981973;28;20311;-51
2022/02/17 09:34:40;;;;;;;13.57;7.53;;;27.30;67.10;;;;;;4982133;28;20088;-46
2022/02/17 09:37:06;;;;;;;14.60;7.50;;;27.30;67.40;;;;;;4981972;28;20074;-48
2022/02/17 09:39:35;;;;;;;14.65;7.53;;;27.30;68.00;;;;;;4982400;28;20039;-51
2022/02/17 09:42:03;;;;;;;13.35;7.38;;;27.30;67.80;;;;;;4982173;28;20023;-45
2022/02/17 09:44:31;;;;;;;12.10;7.70;;;27.30;67.30;;;;;;4982511;28;20022;-46
2022/02/17 09:46:58;;;;;;;15.98;7.40;;;27.30;67.40;;;;;;4981762;28;20046;-45
2022/02/17 09:49:25;;;;;;;13.63;7.75;;;27.30;67.40;;;;;;4982610;28;20026;-51
2022/02/17 09:51:54;;;;;;;11.10;7.53;;;27.30;67.40;;;;;;4982161;28;20046;-47
2022/02/17 09:54:21;;;;;;;14.57;7.43;;;27.30;67.70;;;;;;4982205;28;20027;-49
2022/02/17 09:56:48;;;;;;;12.05;7.30;;;27.30;67.70;;;;;;4981893;28;20023;-56
2022/02/17 09:59:16;;;;;;;15.00;8.18;;;27.20;67.80;;;;;;4982306;28;20307;-53
2022/02/17 10:02:04;;;;;;;19.00;7.85;;;27.30;67.80;;;;;;4981720;28;20090;-51
2022/02/17 10:04:31;;;;;;;16.42;8.15;;;27.30;67.70;;;;;;4981961;28;20043;-49
2022/02/17 10:07:00;;;;;;;19.77;7.70;;;27.20;67.50;;;;;;4981813;28;20026;-47
2022/02/17 10:09:38;;;;;;;14.82;8.13;;;27.20;67.50;;;;;;4982213;28;20030;-47
2022/02/17 10:12:06;;;;;;;23.58;8.57;;;27.20;67.30;;;;;;4981718;28;20315;-47
2022/02/17 10:14:33;;;;;;;17.23;8.13;;;27.20;67.40;;;;;;4981685;28;20026;-52
2022/02/17 10:17:11;;;;;;;18.00;7.57;;;27.20;67.50;;;;;;4984310;28;20076;-52
2022/02/17 10:19:41;;;;;;;17.45;8.00;;;27.20;67.50;;;;;;4984680;28;20074;-51
2022/02/17 10:22:15;;;;;;;14.95;7.13;;;27.20;67.80;;;;;;4984746;28;20085;-49
2022/02/17 10:24:48;;;;;;;13.02;7.43;;;27.20;68.00;;;;;;4985116;28;20338;-53
2022/02/17 10:27:35;;;;;;;12.95;7.43;;;27.20;68.00;;;;;;4984630;28;20098;-49
2022/02/17 10:30:10;;;;;;;15.18;7.22;;;27.20;68.20;;;;;;4984801;28;20318;-51
2022/02/17 10:32:58;;;;;;;17.15;8.30;;;27.20;68.40;;;;;;4985054;28;20062;-56
2022/02/17 10:35:25;;;;;;;14.88;7.45;;;27.20;68.30;;;;;;4984889;28;20101;-51
2022/02/17 10:37:55;;;;;;;17.35;8.13;;;27.20;68.40;;;;;;4984667;28;20030;-52
2022/02/17 10:40:26;;;;;;;14.60;8.02;;;27.20;68.40;;;;;;4984738;28;20052;-52
2022/02/17 10:43:10;;;;;;;17.35;8.48;;;27.20;68.40;;;;;;4984810;28;20299;-52
2022/02/17 10:45:38;;;;;;;16.85;8.00;;;27.20;68.50;;;;;;4984432;28;20041;-51
2022/02/17 10:48:12;;;;;;;18.58;8.48;;;27.20;68.40;;;;;;4984624;28;20319;-52
2022/02/17 10:50:38;;;;;;;14.45;7.90;;;27.20;68.30;;;;;;4984357;28;20034;-52
2022/02/17 10:53:19;;;;;;;19.35;8.10;;;27.20;68.30;;;;;;4984398;28;20031;-54
2022/02/17 10:56:04;;;;;;;17.65;8.05;;;27.20;68.40;;;;;;4984434;28;20022;-48
2022/02/17 10:58:34;;;;;;;17.02;7.40;;;27.20;68.50;;;;;;4984613;28;20034;-56
2022/02/17 11:01:03;;;;;;;26.02;8.10;;;27.20;68.50;;;;;;4984204;28;20079;-49
2022/02/17 11:03:34;;;;;;;23.95;7.90;;;27.20;68.40;;;;;;4984480;28;20267;-55
2022/02/17 11:06:02;;;;;;;25.33;8.40;;;27.20;68.60;;;;;;4984185;28;20031;-48
2022/02/17 11:08:29;;;;;;;29.52;8.77;;;27.20;68.70;;;;;;4984459;28;20034;-48
2022/02/17 11:10:56;;;;;;;23.70;8.15;;;27.20;68.80;;;;;;4983945;28;20300;-50
2022/02/17 11:13:24;;;;;;;19.52;8.10;;;27.20;68.90;;;;;;4983022;28;20235;-53
2022/02/17 11:15:53;;;;;;;28.73;8.40;;;27.20;69.10;;;;;;4984167;28;20342;-52
2022/02/17 11:18:21;;;;;;;20.67;8.10;;;27.20;69.10;;;;;;4984123;28;20307;-50
2022/02/17 11:20:49;;;;;;;32.40;8.20;;;27.20;69.00;;;;;;4983384;28;20317;-47
2022/02/17 11:23:21;;;;;;;33.15;8.95;;;27.20;69.20;;;;;;4984170;28;20031;-52
2022/02/17 11:25:48;;;;;;;27.85;8.88;;;27.20;69.40;;;;;;4983794;28;20031;-52
2022/02/17 11:28:17;;;;;;;31.73;8.48;;;27.20;69.70;;;;;;4983167;28;20043;-51
2022/02/17 11:30:58;;;;;;;31.20;9.25;;;27.10;70.00;;;;;;4984320;28;20128;-46
2022/02/17 11:33:28;;;;;;;51.17;10.50;;;27.10;70.00;;;;;;4984227;28;20053;-52
2022/02/17 11:35:59;;;;;;;36.70;9.45;;;27.10;70.10;;;;;;4984133;28;20271;-45
2022/02/17 11:38:34;;;;;;;39.45;10.55;;;27.10;70.00;;;;;;4983447;28;20031;-46
2022/02/17 11:41:15;;;;;;;47.70;11.70;;;27.10;70.10;;;;;;4982210;28;20050;-50
2022/02/17 11:43:44;;;;;;;39.38;11.88;;;27.10;70.40;;;;;;4982321;28;20039;-51
2022/02/17 11:46:14;;;;;;;46.65;11.77;;;27.10;70.40;;;;;;4982128;28;20208;-51
2022/02/17 11:48:45;;;;;;;43.22;11.52;;;27.10;70.50;;;;;;4982474;28;20041;-47
2022/02/17 11:51:18;;;;;;;57.17;11.50;;;27.10;70.50;;;;;;4982158;28;20034;-50
2022/02/17 11:54:14;;;;;;;36.67;10.68;;;27.10;70.80;;;;;;4983013;28;20031;-49
2022/02/17 11:56:50;;;;;;;36.28;11.32;;;27.10;70.70;;;;;;4983655;28;20054;-47
2022/02/17 11:59:22;;;;;;;35.45;11.00;;;27.10;70.70;;;;;;4984196;28;20054;-50
2022/02/17 12:01:49;;;;;;;45.50;11.95;;;27.10;70.60;;;;;;4983674;28;20031;-49
2022/02/17 12:04:20;;;;;;;75.00;15.27;;;27.10;70.50;;;;;;4983636;28;20038;-46
2022/02/17 12:06:51;;;;;;;54.17;13.40;;;27.10;70.70;;;;;;4983445;28;20039;-46
2022/02/17 12:12:27;;;;;;;61.75;13.48;;;27.10;70.60;;;;;;4983572;28;20027;-49
2022/02/17 12:14:56;;;;;;;51.30;12.65;;;27.10;70.60;;;;;;4983817;28;20065;-52
2022/02/17 12:17:33;;;;;;;54.45;13.38;;;27.10;70.60;;;;;;4983765;28;20325;-53
2022/02/17 12:20:07;;;;;;;56.88;12.90;;;27.10;70.70;;;;;;4983369;28;20050;-46
2022/02/17 12:22:35;;;;;;;36.72;12.02;;;27.10;71.00;;;;;;4983314;28;20152;-45
2022/02/17 12:25:15;;;;;;;48.03;12.57;;;27.10;70.90;;;;;;4983715;28;20098;-48
2022/02/17 12:28:00;;;;;;;53.28;12.65;;;27.10;71.20;;;;;;4983266;28;20035;-53
2022/02/17 12:30:42;;;;;;;51.17;12.55;;;27.10;71.50;;;;;;4983238;28;20072;-53
2022/02/17 12:33:30;;;;;;;49.90;12.27;;;27.00;71.40;;;;;;4983420;28;20026;-46
2022/02/17 12:36:00;;;;;;;46.15;12.70;;;27.10;71.80;;;;;;4983573;28;20026;-48
2022/02/17 12:38:36;;;;;;;51.35;14.40;;;27.10;71.50;;;;;;4983282;28;20046;-45
2022/02/17 12:41:12;;;;;;;59.65;13.27;;;27.00;71.80;;;;;;4983618;28;20041;-47
2022/02/17 12:43:46;;;;;;;75.68;14.60;;;27.00;71.90;;;;;;4983532;28;20026;-46
2022/02/17 12:46:16;;;;;;;80.00;15.50;;;27.00;72.30;;;;;;4983455;28;20035;-46
2022/02/17 12:48:42;;;;;;;74.25;15.50;;;27.00;72.50;;;;;;4982941;28;20095;-48